Time;durP1;ratioP1;P1;durP2;ratioP2;P2;SDS_P1;SDS_P2;PMS_P1;PMS_P2;Temp;Humidity;BMP_temperature;BMP_pressure;BME280_temperature;BME280_humidity;BME280_pressure;Samples;Min_cycle;Max_cycle;Signal;HPM_P1;HPM_P2
2023/07/30 00:00:26;;;;;;;53.20;24.70;;;;;;;;;;5013042;28;20108;-62
2023/07/30 00:02:53;;;;;;;50.63;23.25;;;;;;;;;;5012855;28;20053;-61
2023/07/30 00:05:20;;;;;;;54.10;24.35;;;;;;;;;;5013014;28;20365;-62
2023/07/30 00:07:47;;;;;;;48.65;24.02;;;;;;;;;;5011594;28;20072;-61
2023/07/30 00:10:14;;;;;;;56.78;23.63;;;;;;;;;;5012991;28;20073;-61
2023/07/30 00:12:41;;;;;;;49.78;23.20;;;;;;;;;;5012996;28;20064;-62
2023/07/30 00:15:08;;;;;;;54.15;23.70;;;;;;;;;;5012892;28;20021;-61
2023/07/30 00:17:35;;;;;;;47.25;22.90;;;;;;;;;;5012731;28;20080;-61
2023/07/30 00:20:03;;;;;;;48.35;23.55;;;;;;;;;;5012789;28;20040;-62
2023/07/30 00:22:30;;;;;;;48.83;22.85;;;;;;;;;;5012781;28;20017;-61
2023/07/30 00:24:57;;;;;;;53.75;22.98;;;;;;;;;;5012713;28;20034;-61
2023/07/30 00:27:24;;;;;;;50.28;23.27;;;;;;;;;;5012614;28;20068;-61
2023/07/30 00:29:51;;;;;;;52.83;23.17;;;;;;;;;;5012630;28;20030;-61
2023/07/30 00:32:18;;;;;;;51.17;22.70;;;;;;;;;;5012628;28;20033;-61
2023/07/30 00:34:45;;;;;;;53.85;23.00;;;;;;;;;;5012579;28;20469;-61
2023/07/30 00:37:12;;;;;;;41.78;21.60;;;;;;;;;;5012507;28;20033;-61
2023/07/30 00:39:39;;;;;;;47.25;21.92;;;;;;;;;;5012510;28;20168;-61
2023/07/30 00:42:06;;;;;;;49.15;21.73;;;;;;;;;;5012020;28;20022;-61
2023/07/30 00:44:33;;;;;;;43.97;21.55;;;;;;;;;;5012360;28;20026;-61
2023/07/30 00:47:00;;;;;;;41.88;21.17;;;;;;;;;;5010789;28;20733;-61
2023/07/30 00:49:27;;;;;;;45.22;20.67;;;;;;;;;;5012368;28;20026;-61
2023/07/30 00:51:56;;;;;;;43.90;20.83;;;;;;;;;;5012293;28;20026;-61
2023/07/30 00:54:23;;;;;;;39.40;20.13;;;;;;;;;;5010813;28;20377;-61
2023/07/30 00:56:52;;;;;;;42.35;20.85;;;;;;;;;;5012150;28;20030;-61
2023/07/30 00:59:20;;;;;;;42.15;20.65;;;;;;;;;;5012194;28;20025;-61
2023/07/30 01:01:47;;;;;;;40.78;20.17;;;;;;;;;;5012197;28;20061;-61
2023/07/30 01:04:15;;;;;;;38.20;20.02;;;;;;;;;;5011812;28;20053;-61
2023/07/30 01:06:43;;;;;;;42.20;20.15;;;;;;;;;;5011999;28;20475;-61
2023/07/30 01:09:10;;;;;;;43.97;21.15;;;;;;;;;;5012071;28;20025;-61
2023/07/30 01:11:38;;;;;;;41.55;19.98;;;;;;;;;;5012076;28;20026;-61
2023/07/30 01:14:06;;;;;;;44.47;20.67;;;;;;;;;;5012065;28;20491;-61
2023/07/30 01:16:33;;;;;;;39.85;19.02;;;;;;;;;;5011936;28;20022;-61
2023/07/30 01:19:04;;;;;;;40.50;20.23;;;;;;;;;;5011983;28;20033;-61
2023/07/30 01:21:34;;;;;;;38.47;19.73;;;;;;;;;;5011958;28;20101;-61
2023/07/30 01:24:01;;;;;;;35.47;19.02;;;;;;;;;;5010469;28;20395;-61
2023/07/30 01:26:37;;;;;;;43.47;20.10;;;;;;;;;;5011766;28;20058;-61
2023/07/30 01:29:08;;;;;;;39.30;20.02;;;;;;;;;;5011897;28;20054;-61
2023/07/30 01:31:36;;;;;;;39.25;20.48;;;;;;;;;;5011868;28;20018;-61
2023/07/30 01:34:04;;;;;;;40.22;18.23;;;;;;;;;;5011806;28;20018;-61
2023/07/30 01:36:33;;;;;;;42.53;20.00;;;;;;;;;;5011641;28;20387;-61
2023/07/30 01:39:00;;;;;;;38.13;19.15;;;;;;;;;;5011842;28;20032;-61
2023/07/30 01:41:27;;;;;;;37.50;18.67;;;;;;;;;;5010373;28;20022;-61
2023/07/30 01:43:55;;;;;;;37.58;19.55;;;;;;;;;;5011673;28;20041;-61
2023/07/30 01:46:22;;;;;;;36.65;19.33;;;;;;;;;;5011614;28;20816;-61
2023/07/30 01:48:49;;;;;;;40.17;18.52;;;;;;;;;;5011688;28;20105;-61
2023/07/30 01:51:16;;;;;;;37.40;18.95;;;;;;;;;;5010295;28;20026;-61
2023/07/30 01:53:43;;;;;;;35.05;17.83;;;;;;;;;;5011648;28;20025;-61
2023/07/30 01:56:09;;;;;;;34.70;18.17;;;;;;;;;;5015487;28;20495;-61
2023/07/30 01:58:36;;;;;;;35.17;17.98;;;;;;;;;;5014044;28;20376;-61
2023/07/30 02:01:03;;;;;;;34.35;17.92;;;;;;;;;;5015328;28;20057;-61
2023/07/30 02:03:30;;;;;;;34.78;17.73;;;;;;;;;;5015109;28;20048;-61
2023/07/30 02:05:58;;;;;;;37.30;18.50;;;;;;;;;;5015517;28;20037;-61
2023/07/30 02:08:25;;;;;;;34.97;17.67;;;;;;;;;;5015286;28;20033;-61
2023/07/30 02:10:58;;;;;;;33.88;17.27;;;;;;;;;;5015197;28;20041;-63
2023/07/30 02:13:25;;;;;;;34.22;17.50;;;;;;;;;;5015080;28;20483;-63
2023/07/30 02:15:52;;;;;;;31.33;16.52;;;;;;;;;;5015006;28;20030;-63
2023/07/30 02:18:19;;;;;;;33.75;16.77;;;;;;;;;;5015127;28;20101;-63
2023/07/30 02:20:47;;;;;;;33.03;16.15;;;;;;;;;;5015054;28;20069;-63
2023/07/30 02:23:18;;;;;;;31.20;16.95;;;;;;;;;;5014862;28;20056;-63
2023/07/30 02:25:45;;;;;;;36.50;17.17;;;;;;;;;;5014854;28;20054;-63
2023/07/30 02:28:12;;;;;;;32.22;16.90;;;;;;;;;;5014874;28;20022;-63
2023/07/30 02:30:39;;;;;;;29.58;16.85;;;;;;;;;;5014863;28;20025;-63
2023/07/30 02:33:06;;;;;;;29.40;15.95;;;;;;;;;;5014755;28;20413;-63
2023/07/30 02:35:33;;;;;;;29.85;16.05;;;;;;;;;;5014712;28;20064;-63
2023/07/30 02:38:00;;;;;;;30.90;16.42;;;;;;;;;;5014673;28;20075;-63
2023/07/30 02:40:27;;;;;;;34.58;16.80;;;;;;;;;;5014706;28;20056;-63
2023/07/30 02:42:54;;;;;;;29.70;15.25;;;;;;;;;;5014573;28;20494;-63
2023/07/30 02:45:21;;;;;;;29.75;16.00;;;;;;;;;;5014498;28;20026;-63
2023/07/30 02:47:48;;;;;;;30.15;15.98;;;;;;;;;;5014577;28;20484;-63
2023/07/30 02:50:15;;;;;;;28.42;15.80;;;;;;;;;;5014485;28;20543;-63
2023/07/30 02:52:42;;;;;;;25.00;14.70;;;;;;;;;;5014484;28;20022;-63
2023/07/30 02:55:09;;;;;;;32.85;16.23;;;;;;;;;;5014322;28;20036;-63
2023/07/30 02:57:36;;;;;;;29.17;15.82;;;;;;;;;;5014286;28;20370;-63
2023/07/30 03:00:04;;;;;;;28.52;15.93;;;;;;;;;;5014293;28;20049;-63
2023/07/30 03:02:31;;;;;;;26.77;15.18;;;;;;;;;;5014156;28;20042;-63
2023/07/30 03:05:01;;;;;;;27.42;15.15;;;;;;;;;;5012439;28;20049;-63
2023/07/30 03:07:29;;;;;;;30.15;15.35;;;;;;;;;;5014124;28;20105;-63
2023/07/30 03:09:56;;;;;;;24.70;14.85;;;;;;;;;;5014174;28;20100;-63
2023/07/30 03:12:23;;;;;;;31.55;15.18;;;;;;;;;;5014072;28;20464;-63
2023/07/30 03:14:50;;;;;;;24.73;14.43;;;;;;;;;;5014070;28;20056;-63
2023/07/30 03:17:17;;;;;;;27.38;14.82;;;;;;;;;;5013993;28;20022;-63
2023/07/30 03:19:44;;;;;;;30.02;15.05;;;;;;;;;;5013906;28;20022;-63
2023/07/30 03:22:11;;;;;;;29.90;15.73;;;;;;;;;;5013932;28;20029;-63
2023/07/30 03:24:38;;;;;;;28.58;14.35;;;;;;;;;;5013838;28;20472;-63
2023/07/30 03:27:05;;;;;;;21.55;13.20;;;;;;;;;;5013767;28;20022;-63
2023/07/30 03:29:32;;;;;;;28.13;14.73;;;;;;;;;;5013760;28;20026;-63
2023/07/30 03:31:59;;;;;;;26.10;14.10;;;;;;;;;;5013750;28;20417;-63
2023/07/30 03:34:26;;;;;;;26.52;14.23;;;;;;;;;;5013701;28;20582;-63
2023/07/30 03:36:53;;;;;;;26.85;14.63;;;;;;;;;;5013547;28;20018;-63
2023/07/30 03:39:20;;;;;;;24.23;13.95;;;;;;;;;;5013637;28;20028;-63
2023/07/30 03:41:47;;;;;;;27.42;13.32;;;;;;;;;;5013480;28;20025;-63
2023/07/30 03:44:14;;;;;;;22.25;13.40;;;;;;;;;;5012030;28;20030;-63
2023/07/30 03:46:41;;;;;;;22.27;13.25;;;;;;;;;;5013346;28;20057;-63
2023/07/30 03:49:08;;;;;;;27.77;13.65;;;;;;;;;;5013293;28;20049;-63
2023/07/30 03:51:36;;;;;;;26.33;13.40;;;;;;;;;;5013324;28;20431;-63
2023/07/30 03:54:03;;;;;;;24.02;13.35;;;;;;;;;;5013288;28;20049;-63
2023/07/30 03:56:30;;;;;;;21.92;13.23;;;;;;;;;;5013173;28;20029;-63
2023/07/30 03:58:57;;;;;;;24.00;13.68;;;;;;;;;;5013170;28;20117;-63
2023/07/30 04:01:24;;;;;;;27.95;14.05;;;;;;;;;;5013114;28;20022;-63
2023/07/30 04:03:51;;;;;;;26.92;13.55;;;;;;;;;;5012818;28;20484;-63
2023/07/30 04:06:18;;;;;;;23.00;12.70;;;;;;;;;;5012930;28;20025;-63
2023/07/30 04:08:45;;;;;;;22.15;13.30;;;;;;;;;;5012967;28;20108;-63
2023/07/30 04:11:12;;;;;;;23.25;12.57;;;;;;;;;;5012998;28;20025;-63
2023/07/30 04:13:40;;;;;;;25.30;13.35;;;;;;;;;;5013201;28;20056;-63
2023/07/30 04:16:07;;;;;;;23.90;13.00;;;;;;;;;;5012702;28;20128;-63
2023/07/30 04:18:34;;;;;;;24.85;13.02;;;;;;;;;;5012278;28;20026;-63
2023/07/30 04:21:01;;;;;;;23.45;13.50;;;;;;;;;;5012831;28;20026;-63
2023/07/30 04:23:28;;;;;;;24.08;13.13;;;;;;;;;;5012682;28;20065;-63
2023/07/30 04:25:55;;;;;;;22.45;12.38;;;;;;;;;;5012567;28;20022;-63
2023/07/30 04:28:23;;;;;;;21.10;12.30;;;;;;;;;;5012632;28;20029;-63
2023/07/30 04:30:50;;;;;;;24.00;12.38;;;;;;;;;;5012617;28;20026;-63
2023/07/30 04:33:17;;;;;;;21.40;12.10;;;;;;;;;;5012608;28;20392;-63
2023/07/30 04:35:44;;;;;;;22.05;11.88;;;;;;;;;;5012436;28;20029;-63
2023/07/30 04:38:11;;;;;;;20.73;12.02;;;;;;;;;;5012506;28;20076;-63
2023/07/30 04:40:38;;;;;;;23.10;11.85;;;;;;;;;;5012471;28;20032;-63
2023/07/30 04:43:05;;;;;;;20.90;11.65;;;;;;;;;;5012314;28;20385;-63
2023/07/30 04:45:32;;;;;;;23.83;11.82;;;;;;;;;;5012333;28;20087;-63
2023/07/30 04:47:59;;;;;;;21.65;11.85;;;;;;;;;;5012376;28;20488;-63
2023/07/30 04:50:26;;;;;;;21.33;12.73;;;;;;;;;;5012209;28;20022;-62
2023/07/30 04:52:53;;;;;;;19.10;10.95;;;;;;;;;;5012260;28;20030;-63
2023/07/30 04:55:20;;;;;;;21.08;11.65;;;;;;;;;;5012149;28;20032;-63
2023/07/30 04:57:47;;;;;;;18.55;11.25;;;;;;;;;;5012215;28;20040;-63
2023/07/30 05:00:14;;;;;;;21.55;11.23;;;;;;;;;;5012142;28;20026;-63
2023/07/30 05:02:41;;;;;;;18.95;11.30;;;;;;;;;;5011944;28;20045;-63
2023/07/30 05:05:08;;;;;;;20.35;11.57;;;;;;;;;;5011972;28;20038;-63
2023/07/30 05:07:35;;;;;;;21.38;11.27;;;;;;;;;;5012096;28;20026;-63
2023/07/30 05:10:06;;;;;;;21.83;11.98;;;;;;;;;;5012132;28;20395;-62
2023/07/30 05:12:33;;;;;;;20.55;10.88;;;;;;;;;;5012341;28;20026;-63
2023/07/30 05:15:00;;;;;;;21.05;11.98;;;;;;;;;;5011866;28;20030;-63
2023/07/30 05:17:27;;;;;;;21.85;11.55;;;;;;;;;;5012023;28;20022;-63
2023/07/30 05:19:54;;;;;;;17.90;10.20;;;;;;;;;;5011958;28;20796;-63
2023/07/30 05:22:21;;;;;;;19.58;10.82;;;;;;;;;;5011954;28;20022;-62
2023/07/30 05:24:48;;;;;;;20.23;11.48;;;;;;;;;;5011748;28;20034;-63
2023/07/30 05:27:15;;;;;;;15.88;9.98;;;;;;;;;;5011840;28;20050;-63
2023/07/30 05:29:42;;;;;;;18.42;10.77;;;;;;;;;;5015274;28;20026;-63
2023/07/30 05:32:10;;;;;;;20.23;10.60;;;;;;;;;;5016013;28;20032;-63
2023/07/30 05:34:36;;;;;;;16.90;10.57;;;;;;;;;;5015892;28;20030;-63
2023/07/30 05:37:04;;;;;;;18.92;10.77;;;;;;;;;;5015721;28;20064;-62
2023/07/30 05:39:31;;;;;;;18.58;10.05;;;;;;;;;;5015785;28;20026;-63
2023/07/30 05:41:58;;;;;;;19.38;10.68;;;;;;;;;;5015750;28;20026;-63
2023/07/30 05:44:25;;;;;;;18.67;10.98;;;;;;;;;;5015682;28;20553;-63
2023/07/30 05:46:52;;;;;;;19.15;10.02;;;;;;;;;;5015636;28;20109;-62
2023/07/30 05:49:19;;;;;;;17.02;10.15;;;;;;;;;;5015594;28;20029;-63
2023/07/30 05:51:46;;;;;;;16.60;9.90;;;;;;;;;;5015590;28;20022;-63
2023/07/30 05:54:13;;;;;;;17.08;9.60;;;;;;;;;;5015541;28;20558;-62
2023/07/30 05:56:40;;;;;;;18.90;10.52;;;;;;;;;;5015416;28;20096;-63
2023/07/30 05:59:07;;;;;;;18.48;9.75;;;;;;;;;;5015389;28;20400;-63
2023/07/30 06:01:34;;;;;;;18.40;9.90;;;;;;;;;;5014003;28;20048;-63
2023/07/30 06:04:01;;;;;;;18.77;10.25;;;;;;;;;;5015104;28;20046;-63
2023/07/30 06:06:29;;;;;;;17.52;9.70;;;;;;;;;;5015190;28;20110;-63
2023/07/30 06:08:56;;;;;;;20.20;10.85;;;;;;;;;;5015300;28;20113;-63
2023/07/30 06:11:23;;;;;;;17.52;9.63;;;;;;;;;;5015167;28;20486;-62
2023/07/30 06:13:50;;;;;;;16.30;9.68;;;;;;;;;;5015186;28;20037;-63
2023/07/30 06:16:20;;;;;;;15.10;9.35;;;;;;;;;;5015080;28;20033;-63
2023/07/30 06:18:47;;;;;;;18.13;9.57;;;;;;;;;;5015109;28;20048;-62
2023/07/30 06:21:14;;;;;;;17.85;9.95;;;;;;;;;;5015081;28;20625;-63
2023/07/30 06:23:41;;;;;;;17.05;10.00;;;;;;;;;;5014887;28;20095;-63
2023/07/30 06:26:08;;;;;;;13.60;8.90;;;;;;;;;;5015010;28;20369;-63
2023/07/30 06:28:35;;;;;;;18.38;9.60;;;;;;;;;;5014903;28;20026;-63
2023/07/30 06:31:03;;;;;;;17.58;9.32;;;;;;;;;;5172828;22;20107;-48
2023/07/30 06:33:30;;;;;;;16.58;8.98;;;;;;;;;;4985239;28;20049;-50
2023/07/30 06:35:57;;;;;;;17.10;9.30;;;;;;;;;;4995170;28;20150;-49
2023/07/30 06:38:24;;;;;;;17.67;9.20;;;;;;;;;;4995463;28;20022;-49
2023/07/30 06:40:52;;;;;;;16.10;9.30;;;;;;;;;;4994472;28;20032;-49
2023/07/30 06:43:19;;;;;;;16.27;9.38;;;;;;;;;;4994975;28;20030;-49
2023/07/30 06:45:46;;;;;;;16.20;9.15;;;;;;;;;;4995029;28;20026;-49
2023/07/30 06:48:13;;;;;;;15.00;9.25;;;;;;;;;;4977477;28;20033;-49
2023/07/30 06:50:40;;;;;;;12.00;8.40;;;;;;;;;;4977341;28;20026;-49
2023/07/30 06:53:07;;;;;;;15.65;9.27;;;;;;;;;;4994713;28;20118;-48
2023/07/30 06:55:34;;;;;;;15.27;9.05;;;;;;;;;;4994826;28;20480;-49
2023/07/30 06:58:01;;;;;;;18.90;8.95;;;;;;;;;;4994772;28;20472;-49
2023/07/30 07:00:28;;;;;;;15.75;8.63;;;;;;;;;;4994754;28;20032;-49
2023/07/30 07:02:55;;;;;;;17.33;8.32;;;;;;;;;;4994448;28;20030;-49
2023/07/30 07:05:22;;;;;;;15.18;8.35;;;;;;;;;;4994557;28;20062;-50
2023/07/30 07:07:49;;;;;;;15.15;8.85;;;;;;;;;;4994523;28;20399;-49
2023/07/30 07:10:16;;;;;;;17.42;8.90;;;;;;;;;;4994546;28;20085;-48
2023/07/30 07:12:43;;;;;;;16.98;8.35;;;;;;;;;;4994419;28;20022;-49
2023/07/30 07:15:10;;;;;;;17.58;8.50;;;;;;;;;;4994465;28;20033;-49
2023/07/30 07:17:37;;;;;;;16.65;8.52;;;;;;;;;;4994388;28;20019;-49
2023/07/30 07:20:06;;;;;;;14.15;8.48;;;;;;;;;;4994377;28;20034;-50
2023/07/30 07:22:34;;;;;;;13.35;8.07;;;;;;;;;;4994092;28;20038;-50
2023/07/30 07:25:00;;;;;;;14.85;8.13;;;;;;;;;;4994203;28;20554;-49
2023/07/30 07:27:27;;;;;;;14.23;8.73;;;;;;;;;;4994248;28;20476;-49
2023/07/30 07:29:54;;;;;;;14.25;7.85;;;;;;;;;;4994160;28;20033;-50
2023/07/30 07:32:22;;;;;;;15.60;7.88;;;;;;;;;;4993887;28;20077;-48
2023/07/30 07:34:49;;;;;;;13.30;8.05;;;;;;;;;;4994112;28;20026;-49
2023/07/30 07:37:18;;;;;;;13.90;7.05;;;;;;;;;;4994360;28;20026;-49
2023/07/30 07:39:45;;;;;;;17.13;7.82;;;;;;;;;;4993997;28;20030;-50
2023/07/30 07:42:12;;;;;;;17.45;7.35;;;;;;;;;;4993895;28;20026;-49
2023/07/30 07:44:39;;;;;;;17.63;8.30;;;;;;;;;;4993763;28;20042;-49
2023/07/30 07:47:06;;;;;;;15.50;7.72;;;;;;;;;;4993847;28;20496;-50
2023/07/30 07:49:33;;;;;;;17.23;7.38;;;;;;;;;;4993784;28;20027;-49
2023/07/30 07:52:00;;;;;;;14.20;7.80;;;;;;;;;;4992600;28;20542;-49
2023/07/30 07:54:27;;;;;;;13.30;7.82;;;;;;;;;;4993721;28;20362;-50
2023/07/30 07:56:55;;;;;;;15.93;7.70;;;;;;;;;;4993642;28;20030;-49
2023/07/30 07:59:22;;;;;;;14.70;7.88;;;;;;;;;;4993617;28;20019;-49
2023/07/30 08:01:49;;;;;;;14.52;7.00;;;;;;;;;;4993313;28;20388;-50
2023/07/30 08:04:16;;;;;;;15.00;7.60;;;;;;;;;;4993462;28;20118;-49
2023/07/30 08:06:43;;;;;;;12.07;7.30;;;;;;;;;;4993498;28;20018;-49
2023/07/30 08:09:10;;;;;;;13.75;7.05;;;;;;;;;;4993443;28;20029;-49
2023/07/30 08:11:37;;;;;;;12.73;7.22;;;;;;;;;;4993259;28;20026;-49
2023/07/30 08:14:04;;;;;;;13.30;7.70;;;;;;;;;;4993334;28;20048;-49
2023/07/30 08:16:31;;;;;;;10.85;6.47;;;;;;;;;;4993312;28;20026;-49
2023/07/30 08:18:58;;;;;;;14.70;7.20;;;;;;;;;;4993311;28;20089;-49
2023/07/30 08:21:24;;;;;;;11.13;6.88;;;;;;;;;;4993145;28;20018;-51
2023/07/30 08:23:51;;;;;;;12.55;7.10;;;;;;;;;;4993098;28;20034;-49
2023/07/30 08:26:19;;;;;;;12.93;7.28;;;;;;;;;;4993107;28;20029;-49
2023/07/30 08:28:45;;;;;;;14.65;7.15;;;;;;;;;;4993398;28;20502;-49
2023/07/30 08:31:12;;;;;;;12.48;6.65;;;;;;;;;;4992892;28;20033;-49
2023/07/30 08:33:39;;;;;;;13.32;7.05;;;;;;;;;;4993000;28;20033;-49
2023/07/30 08:36:06;;;;;;;11.68;6.35;;;;;;;;;;4992991;28;20038;-49
2023/07/30 08:38:33;;;;;;;10.80;6.55;;;;;;;;;;4992946;28;20029;-49
2023/07/30 08:41:01;;;;;;;12.90;7.10;;;;;;;;;;4992785;28;20018;-51
2023/07/30 08:43:28;;;;;;;13.32;6.78;;;;;;;;;;4992823;28;20044;-49
2023/07/30 08:45:55;;;;;;;12.10;6.43;;;;;;;;;;4992869;28;20034;-49
2023/07/30 08:48:22;;;;;;;13.73;6.47;;;;;;;;;;4992760;28;20085;-50
2023/07/30 08:50:49;;;;;;;10.60;6.68;;;;;;;;;;4992665;28;20364;-49
2023/07/30 08:53:16;;;;;;;13.35;6.53;;;;;;;;;;4975187;28;20080;-49
2023/07/30 08:55:43;;;;;;;13.65;6.32;;;;;;;;;;4992657;28;20093;-51
2023/07/30 08:58:11;;;;;;;12.05;6.35;;;;;;;;;;4992641;28;20026;-49
2023/07/30 09:00:39;;;;;;;13.70;7.10;;;;;;;;;;4992400;28;20101;-49
2023/07/30 09:03:07;;;;;;;12.15;6.57;;;;;;;;;;4992253;28;20077;-49
2023/07/30 09:05:34;;;;;;;12.02;6.07;;;;;;;;;;4992567;28;20459;-49
2023/07/30 09:08:01;;;;;;;13.68;6.40;;;;;;;;;;4992394;28;20361;-49
2023/07/30 09:10:28;;;;;;;11.88;6.63;;;;;;;;;;4992418;28;20049;-49
2023/07/30 09:12:59;;;;;;;15.10;6.30;;;;;;;;;;4992342;28;20030;-49
2023/07/30 09:15:37;;;;;;;12.68;6.43;;;;;;;;;;4992412;28;20436;-49
2023/07/30 09:18:05;;;;;;;10.73;5.57;;;;;;;;;;4992199;28;20062;-50
2023/07/30 09:20:38;;;;;;;10.82;5.72;;;;;;;;;;4992313;28;20023;-50
2023/07/30 09:23:07;;;;;;;10.77;6.30;;;;;;;;;;4992354;28;20022;-49
2023/07/30 09:25:34;;;;;;;11.65;5.88;;;;;;;;;;4992336;28;20038;-49
2023/07/30 09:28:01;;;;;;;14.02;6.53;;;;;;;;;;4992222;28;20046;-49
2023/07/30 09:30:28;;;;;;;10.98;5.43;;;;;;;;;;4992250;28;20104;-49
2023/07/30 09:32:58;;;;;;;13.20;5.93;;;;;;;;;;4991833;28;20062;-49
2023/07/30 09:35:26;;;;;;;12.48;6.05;;;;;;;;;;4992263;28;20026;-49
2023/07/30 09:38:03;;;;;;;12.60;6.28;;;;;;;;;;4992260;28;20027;-49
2023/07/30 09:40:38;;;;;;;9.88;5.28;;;;;;;;;;4992137;28;20100;-49
2023/07/30 09:43:06;;;;;;;12.48;6.05;;;;;;;;;;4991975;28;20037;-49
2023/07/30 09:45:37;;;;;;;10.32;5.22;;;;;;;;;;4992064;28;20101;-49
2023/07/30 09:48:05;;;;;;;10.48;5.53;;;;;;;;;;4991959;28;20365;-48
2023/07/30 09:50:32;;;;;;;12.70;5.97;;;;;;;;;;4992083;28;20092;-49
2023/07/30 09:53:00;;;;;;;14.05;5.80;;;;;;;;;;4992024;28;20436;-49
2023/07/30 09:55:27;;;;;;;15.93;5.97;;;;;;;;;;4992044;28;20117;-50
2023/07/30 09:57:54;;;;;;;12.98;5.80;;;;;;;;;;4992353;28;20383;-50
2023/07/30 10:00:21;;;;;;;10.88;5.93;;;;;;;;;;4974750;28;20463;-49
2023/07/30 10:02:49;;;;;;;12.23;5.30;;;;;;;;;;4991850;28;20030;-49
2023/07/30 10:05:20;;;;;;;10.88;5.78;;;;;;;;;;4991819;28;20121;-49
2023/07/30 10:07:52;;;;;;;10.20;5.30;;;;;;;;;;4974461;28;20027;-49
2023/07/30 10:10:20;;;;;;;10.43;5.32;;;;;;;;;;4991922;28;20057;-49
2023/07/30 10:12:48;;;;;;;8.82;5.18;;;;;;;;;;4991621;28;20125;-50
2023/07/30 10:15:20;;;;;;;10.02;4.95;;;;;;;;;;4992717;28;20478;-49
2023/07/30 10:17:47;;;;;;;10.37;5.53;;;;;;;;;;4995438;28;20105;-49
2023/07/30 10:20:28;;;;;;;8.80;5.30;;;;;;;;;;4995505;28;20033;-49
2023/07/30 10:22:56;;;;;;;9.07;5.25;;;;;;;;;;4977905;28;20081;-48
2023/07/30 10:25:28;;;;;;;13.95;5.72;;;;;;;;;;4995318;28;20066;-49
2023/07/30 10:27:56;;;;;;;10.00;5.40;;;;;;;;;;4995378;28;20030;-49
2023/07/30 10:30:23;;;;;;;13.57;5.80;;;;;;;;;;4995346;28;20027;-49
2023/07/30 10:32:57;;;;;;;13.20;5.30;;;;;;;;;;4994886;28;20058;-49
2023/07/30 10:35:37;;;;;;;9.73;4.88;;;;;;;;;;4995039;28;20026;-49
2023/07/30 10:38:33;;;;;;;8.30;5.18;;;;;;;;;;4995198;28;20021;-49
2023/07/30 10:41:19;;;;;;;11.18;5.43;;;;;;;;;;4986550;28;20093;-49
2023/07/30 10:43:50;;;;;;;11.93;5.10;;;;;;;;;;4994911;28;20365;-49
2023/07/30 10:46:20;;;;;;;8.95;5.05;;;;;;;;;;4995030;28;20019;-49
2023/07/30 10:48:48;;;;;;;10.90;5.10;;;;;;;;;;4994965;28;20057;-49
2023/07/30 10:51:16;;;;;;;9.57;5.20;;;;;;;;;;4994858;28;20022;-50
2023/07/30 10:53:44;;;;;;;9.50;5.20;;;;;;;;;;4994803;28;20034;-48
2023/07/30 10:56:11;;;;;;;11.10;4.63;;;;;;;;;;4994843;28;20491;-50
2023/07/30 10:58:39;;;;;;;10.95;4.97;;;;;;;;;;4994770;28;20042;-49
2023/07/30 11:01:07;;;;;;;10.40;5.40;;;;;;;;;;4994531;28;20392;-49
2023/07/30 11:03:35;;;;;;;9.75;5.18;;;;;;;;;;4994619;28;20037;-51
2023/07/30 11:06:02;;;;;;;9.95;4.90;;;;;;;;;;4994578;28;20022;-49
2023/07/30 11:08:37;;;;;;;8.15;4.68;;;;;;;;;;4994590;28;20077;-49
2023/07/30 11:11:04;;;;;;;10.52;5.20;;;;;;;;;;4994550;28;20019;-49
2023/07/30 11:13:36;;;;;;;10.68;4.72;;;;;;;;;;4994548;28;20566;-49
2023/07/30 11:16:03;;;;;;;9.07;5.18;;;;;;;;;;4994502;28;20029;-50
2023/07/30 11:18:36;;;;;;;10.98;5.28;;;;;;;;;;4994414;28;20037;-51
2023/07/30 11:21:07;;;;;;;8.60;4.80;;;;;;;;;;4994303;28;20018;-49
2023/07/30 11:23:35;;;;;;;10.45;4.70;;;;;;;;;;4994264;28;20026;-50
2023/07/30 11:26:03;;;;;;;13.32;5.13;;;;;;;;;;4994068;28;20034;-49
2023/07/30 11:28:31;;;;;;;9.73;5.13;;;;;;;;;;4994269;28;20072;-49
2023/07/30 11:31:02;;;;;;;11.27;5.07;;;;;;;;;;4994006;28;20026;-50
2023/07/30 11:33:29;;;;;;;10.60;5.18;;;;;;;;;;4994149;28;20117;-49
2023/07/30 11:35:57;;;;;;;11.00;5.20;;;;;;;;;;4994045;28;20027;-48
2023/07/30 11:38:25;;;;;;;7.70;4.97;;;;;;;;;;4994079;28;20034;-49
2023/07/30 11:40:53;;;;;;;8.10;4.75;;;;;;;;;;4993908;28;20027;-49
2023/07/30 11:43:23;;;;;;;8.85;4.53;;;;;;;;;;4993830;28;20077;-49
2023/07/30 11:46:07;;;;;;;12.98;5.00;;;;;;;;;;4993896;28;20384;-49
2023/07/30 11:48:35;;;;;;;9.40;5.18;;;;;;;;;;4993700;28;20027;-49
2023/07/30 11:51:02;;;;;;;7.35;4.88;;;;;;;;;;4993517;28;20109;-49
2023/07/30 11:53:45;;;;;;;7.68;4.22;;;;;;;;;;4993784;28;20149;-48
2023/07/30 11:56:32;;;;;;;9.50;4.90;;;;;;;;;;4993565;28;20030;-49
2023/07/30 11:59:00;;;;;;;7.20;4.63;;;;;;;;;;4993510;28;20034;-50
2023/07/30 12:01:28;;;;;;;8.50;4.70;;;;;;;;;;4993563;28;20041;-52
2023/07/30 12:03:56;;;;;;;10.15;4.60;;;;;;;;;;4975936;28;20030;-49
2023/07/30 12:06:23;;;;;;;8.93;4.25;;;;;;;;;;4993498;28;20396;-49
2023/07/30 12:08:51;;;;;;;8.93;4.63;;;;;;;;;;4993544;28;20025;-49
2023/07/30 12:11:22;;;;;;;7.60;4.65;;;;;;;;;;4993371;28;20101;-49
2023/07/30 12:13:50;;;;;;;8.98;4.40;;;;;;;;;;4993395;28;20026;-49
2023/07/30 12:16:17;;;;;;;7.57;4.22;;;;;;;;;;4993134;28;20030;-49
2023/07/30 12:18:44;;;;;;;7.72;4.40;;;;;;;;;;4993366;28;20485;-48
2023/07/30 12:21:12;;;;;;;6.80;3.92;;;;;;;;;;4993208;28;20066;-48
2023/07/30 12:23:39;;;;;;;7.95;4.40;;;;;;;;;;4992970;28;20143;-49
2023/07/30 12:26:06;;;;;;;7.38;4.35;;;;;;;;;;4993213;28;20514;-49
2023/07/30 12:28:34;;;;;;;8.82;4.75;;;;;;;;;;4993099;28;20101;-49
2023/07/30 12:31:01;;;;;;;7.90;4.72;;;;;;;;;;4992893;28;20416;-49
2023/07/30 12:33:28;;;;;;;8.93;3.90;;;;;;;;;;4993061;28;20384;-48
2023/07/30 12:35:55;;;;;;;7.43;4.32;;;;;;;;;;4992987;28;20019;-49
2023/07/30 12:38:22;;;;;;;6.00;4.25;;;;;;;;;;4992429;28;20026;-49
2023/07/30 12:40:49;;;;;;;8.45;4.18;;;;;;;;;;4992826;28;20031;-49
2023/07/30 12:43:21;;;;;;;6.20;4.07;;;;;;;;;;4992799;28;20238;-49
2023/07/30 12:45:48;;;;;;;6.72;4.13;;;;;;;;;;4992742;28;20096;-50
2023/07/30 12:48:15;;;;;;;6.78;4.13;;;;;;;;;;4992828;28;20023;-49
2023/07/30 12:50:42;;;;;;;9.55;4.30;;;;;;;;;;4992565;28;20375;-49
2023/07/30 12:53:09;;;;;;;9.18;4.28;;;;;;;;;;4992705;28;20046;-49
2023/07/30 12:55:38;;;;;;;7.10;3.85;;;;;;;;;;4992718;28;20109;-49
2023/07/30 12:58:05;;;;;;;7.25;4.43;;;;;;;;;;4992575;28;20457;-48
2023/07/30 13:00:32;;;;;;;5.97;3.85;;;;;;;;;;4992557;28;20050;-49
2023/07/30 13:03:00;;;;;;;8.80;4.15;;;;;;;;;;4992542;28;20026;-49
2023/07/30 13:05:27;;;;;;;7.57;4.03;;;;;;;;;;4992531;28;20070;-49
2023/07/30 13:07:54;;;;;;;6.07;3.90;;;;;;;;;;4992539;28;20034;-49
2023/07/30 13:10:21;;;;;;;7.15;3.67;;;;;;;;;;4992410;28;20101;-49
2023/07/30 13:12:48;;;;;;;6.60;3.95;;;;;;;;;;4992494;28;20057;-49
2023/07/30 13:15:15;;;;;;;10.18;4.10;;;;;;;;;;4992470;28;20026;-49
2023/07/30 13:17:42;;;;;;;8.43;4.00;;;;;;;;;;4992444;28;20023;-49
2023/07/30 13:20:09;;;;;;;6.57;4.15;;;;;;;;;;4992385;28;20018;-49
2023/07/30 13:22:36;;;;;;;7.05;3.60;;;;;;;;;;4992291;28;20097;-50
2023/07/30 13:25:03;;;;;;;8.70;3.90;;;;;;;;;;4992085;28;20042;-49
2023/07/30 13:27:30;;;;;;;9.35;4.10;;;;;;;;;;4974783;28;20384;-49
2023/07/30 13:29:57;;;;;;;7.13;4.03;;;;;;;;;;4992262;28;20073;-48
2023/07/30 13:32:24;;;;;;;6.78;3.90;;;;;;;;;;4992022;28;20104;-49
2023/07/30 13:34:51;;;;;;;7.28;3.97;;;;;;;;;;4992198;28;20034;-48
2023/07/30 13:37:18;;;;;;;6.82;4.30;;;;;;;;;;4992111;28;20093;-49
2023/07/30 13:39:45;;;;;;;8.07;3.67;;;;;;;;;;4992152;28;20149;-50
2023/07/30 13:42:12;;;;;;;6.20;4.13;;;;;;;;;;4992083;28;20034;-49
2023/07/30 13:44:40;;;;;;;7.55;4.53;;;;;;;;;;4992103;28;20038;-50
2023/07/30 13:47:07;;;;;;;7.13;4.30;;;;;;;;;;4992129;28;20523;-48
2023/07/30 13:49:34;;;;;;;7.82;4.45;;;;;;;;;;4974607;28;20437;-49
2023/07/30 13:52:01;;;;;;;6.70;4.18;;;;;;;;;;4995815;28;20050;-52
2023/07/30 13:54:28;;;;;;;6.78;4.57;;;;;;;;;;4996010;28;20038;-49
2023/07/30 13:56:55;;;;;;;8.05;4.28;;;;;;;;;;4995962;28;20126;-50
2023/07/30 13:59:22;;;;;;;6.78;4.30;;;;;;;;;;4995886;28;20058;-48
2023/07/30 14:01:49;;;;;;;8.70;4.20;;;;;;;;;;4995798;28;20029;-49
2023/07/30 14:04:16;;;;;;;6.97;4.22;;;;;;;;;;4995791;28;20031;-49
2023/07/30 14:06:44;;;;;;;6.60;4.47;;;;;;;;;;4995811;28;20037;-48
2023/07/30 14:09:11;;;;;;;8.00;4.28;;;;;;;;;;4995595;28;20491;-48
2023/07/30 14:11:40;;;;;;;6.10;4.35;;;;;;;;;;4995579;28;20042;-50
2023/07/30 14:14:07;;;;;;;8.77;4.63;;;;;;;;;;4995442;28;20026;-49
2023/07/30 14:16:34;;;;;;;8.40;4.50;;;;;;;;;;4995602;28;20026;-49
2023/07/30 14:19:02;;;;;;;5.07;4.10;;;;;;;;;;4995537;28;20420;-48
2023/07/30 14:21:29;;;;;;;8.30;4.63;;;;;;;;;;4995268;28;20033;-49
2023/07/30 14:23:56;;;;;;;8.00;4.28;;;;;;;;;;4995427;28;20041;-49
2023/07/30 14:26:23;;;;;;;9.35;4.43;;;;;;;;;;4995441;28;20547;-49
2023/07/30 14:28:50;;;;;;;6.47;4.60;;;;;;;;;;4995395;28;20093;-49
2023/07/30 14:31:16;;;;;;;8.65;4.57;;;;;;;;;;4995123;28;20031;-50